createdAt,value
2022-09-15T00:01:02.102Z,17.20
2022-09-15T00:03:29.039Z,17.20
2022-09-15T00:05:55.846Z,17.20
2022-09-15T00:08:23.316Z,17.10
2022-09-15T00:10:54.837Z,17.00
2022-09-15T00:13:22.754Z,17.00
2022-09-15T00:15:49.576Z,17.00
2022-09-15T00:18:16.273Z,17.10
2022-09-15T00:20:44.469Z,17.10
2022-09-15T00:23:13.609Z,17.20
2022-09-15T00:25:50.593Z,17.10
2022-09-15T00:28:19.445Z,17.20
2022-09-15T00:30:48.309Z,17.20
2022-09-15T00:33:16.427Z,17.20
2022-09-15T00:35:45.448Z,17.20
2022-09-15T00:38:14.246Z,17.20
2022-09-15T00:40:55.496Z,17.20
2022-09-15T00:43:46.210Z,17.30
2022-09-15T00:46:14.452Z,17.30
2022-09-15T00:48:50.196Z,17.20
2022-09-15T00:51:20.677Z,17.20
2022-09-15T00:53:49.359Z,17.10
2022-09-15T00:56:17.918Z,17.20
2022-09-15T00:59:02.270Z,17.20
2022-09-15T01:01:31.942Z,17.30
2022-09-15T01:03:59.544Z,17.30
2022-09-15T01:06:43.357Z,17.40
2022-09-15T01:09:27.937Z,17.30
2022-09-15T01:11:54.783Z,17.30
2022-09-15T01:14:21.621Z,17.30
2022-09-15T01:17:10.064Z,17.40
2022-09-15T01:20:00.054Z,17.30
2022-09-15T01:22:50.355Z,17.30
2022-09-15T01:25:50.782Z,17.30
2022-09-15T01:28:20.204Z,17.40
2022-09-15T01:30:53.868Z,17.40
2022-09-15T01:33:48.908Z,17.40
2022-09-15T01:36:25.205Z,17.30
2022-09-15T01:39:07.485Z,17.30
2022-09-15T01:41:40.473Z,17.30
2022-09-15T01:44:18.503Z,17.20
2022-09-15T01:46:54.593Z,17.30
2022-09-15T01:49:30.223Z,17.40
2022-09-15T01:51:56.916Z,17.30
2022-09-15T01:54:28.254Z,17.30
2022-09-15T01:56:55.384Z,17.20
2022-09-15T01:59:22.247Z,17.20
2022-09-15T02:01:57.363Z,17.30
2022-09-15T02:04:30.848Z,17.40
2022-09-15T02:07:03.960Z,17.40
2022-09-15T02:09:38.331Z,17.40
2022-09-15T02:12:19.392Z,17.40
2022-09-15T02:15:07.784Z,17.40
2022-09-15T02:17:42.594Z,17.30
2022-09-15T02:20:17.632Z,17.30
2022-09-15T02:22:53.529Z,17.30
2022-09-15T02:25:28.788Z,17.30
2022-09-15T02:27:59.801Z,17.40
2022-09-15T02:30:30.067Z,17.30
2022-09-15T02:33:01.473Z,17.40
2022-09-15T02:35:30.420Z,17.40
2022-09-15T02:37:58.154Z,17.40
2022-09-15T02:40:24.934Z,17.40
2022-09-15T02:42:57.502Z,17.40
2022-09-15T02:45:28.370Z,17.40
2022-09-15T02:47:55.020Z,17.50
2022-09-15T02:50:21.730Z,17.50
2022-09-15T02:52:48.369Z,17.50
2022-09-15T02:55:16.304Z,17.50
2022-09-15T02:57:42.942Z,17.50
2022-09-15T03:00:13.394Z,17.40
2022-09-15T03:02:41.829Z,17.30
2022-09-15T03:05:10.225Z,17.30
2022-09-15T03:07:38.016Z,17.40
2022-09-15T03:10:06.412Z,17.40
2022-09-15T03:12:41.739Z,17.50
2022-09-15T03:15:10.851Z,17.40
2022-09-15T03:17:39.314Z,17.40
2022-09-15T03:20:07.910Z,17.50
2022-09-15T03:22:35.203Z,17.50
2022-09-15T03:25:04.794Z,17.60
2022-09-15T03:27:31.692Z,17.60
2022-09-15T03:29:58.816Z,17.60
2022-09-15T03:32:25.882Z,17.60
2022-09-15T03:34:57.713Z,17.60
2022-09-15T03:37:25.202Z,17.70
2022-09-15T03:39:51.968Z,17.70
2022-09-15T03:42:19.572Z,17.70
2022-09-15T03:44:46.273Z,17.80
2022-09-15T03:47:13.036Z,17.80
2022-09-15T03:49:39.675Z,17.70
2022-09-15T03:52:06.284Z,17.70
2022-09-15T03:54:32.920Z,17.70
2022-09-15T03:56:59.577Z,17.60
2022-09-15T03:59:26.223Z,17.70
2022-09-15T04:01:53.028Z,17.70
2022-09-15T04:04:19.757Z,17.70
2022-09-15T04:06:46.391Z,17.60
2022-09-15T04:09:13.551Z,17.60
2022-09-15T04:11:40.918Z,17.60
2022-09-15T04:14:07.606Z,17.60
2022-09-15T04:16:34.292Z,17.70
2022-09-15T04:19:01.066Z,17.70
2022-09-15T04:21:27.736Z,17.70
2022-09-15T04:23:54.504Z,17.70
2022-09-15T04:26:25.857Z,17.80
2022-09-15T04:28:52.550Z,17.70
2022-09-15T04:31:20.283Z,17.60
2022-09-15T04:33:47.629Z,17.50
2022-09-15T04:36:18.049Z,17.10
2022-09-15T04:38:45.741Z,17.00
2022-09-15T04:41:14.079Z,16.80
2022-09-15T04:43:42.968Z,16.50
2022-09-15T04:46:10.751Z,16.50
2022-09-15T04:48:37.777Z,16.50
2022-09-15T04:51:07.555Z,16.50
2022-09-15T04:53:35.597Z,16.40
2022-09-15T04:56:11.154Z,16.30
2022-09-15T04:58:43.424Z,16.20
2022-09-15T05:01:15.727Z,15.90
2022-09-15T05:03:43.204Z,15.90
2022-09-15T05:06:16.505Z,15.90
2022-09-15T05:08:46.404Z,15.90
2022-09-15T05:11:13.079Z,15.80
2022-09-15T05:13:40.604Z,15.70
2022-09-15T05:16:09.625Z,15.60
2022-09-15T05:18:36.324Z,15.40
2022-09-15T05:21:04.737Z,15.20
2022-09-15T05:23:32.076Z,15.00
2022-09-15T05:26:00.300Z,14.90
2022-09-15T05:28:27.821Z,14.80
2022-09-15T05:30:55.546Z,14.60
2022-09-15T05:33:23.558Z,14.50
2022-09-15T05:36:00.608Z,14.50
2022-09-15T05:38:30.133Z,14.10
2022-09-15T05:41:26.766Z,14.00
2022-09-15T05:43:56.841Z,14.10
2022-09-15T05:46:26.067Z,14.00
2022-09-15T05:48:56.825Z,14.10
2022-09-15T05:51:23.822Z,14.20
2022-09-15T05:53:50.906Z,14.10
2022-09-15T05:56:18.058Z,14.00
2022-09-15T05:58:46.567Z,14.00
2022-09-15T06:01:21.958Z,14.10
2022-09-15T06:03:49.223Z,14.20
2022-09-15T06:06:16.781Z,14.30
2022-09-15T06:08:55.581Z,14.30
2022-09-15T06:11:26.969Z,14.20
2022-09-15T06:13:53.656Z,14.40
2022-09-15T06:16:23.732Z,14.50
2022-09-15T06:18:52.517Z,14.60
2022-09-15T06:21:24.624Z,14.70
2022-09-15T06:23:56.182Z,14.80
2022-09-15T06:26:23.737Z,14.80
2022-09-15T06:28:55.584Z,14.80
2022-09-15T06:31:23.242Z,14.90
2022-09-15T06:33:52.158Z,14.90
2022-09-15T06:36:21.036Z,14.90
2022-09-15T06:38:48.064Z,15.00
2022-09-15T06:41:15.265Z,14.80
2022-09-15T06:43:42.309Z,14.90
2022-09-15T06:46:12.440Z,14.80
2022-09-15T06:48:40.194Z,15.00
2022-09-15T06:51:08.867Z,15.10
2022-09-15T06:53:37.989Z,15.10
2022-09-15T06:56:10.934Z,15.10
2022-09-15T06:58:40.026Z,15.20
2022-09-15T07:01:13.069Z,15.20
2022-09-15T07:03:42.900Z,15.30
2022-09-15T07:06:11.785Z,15.30
2022-09-15T07:08:39.681Z,15.30
2022-09-15T07:11:07.460Z,15.10
2022-09-15T07:13:34.282Z,15.30
2022-09-15T07:16:03.969Z,15.40
2022-09-15T07:18:31.890Z,15.50
2022-09-15T07:21:10.311Z,15.20
2022-09-15T07:23:37.384Z,15.30
2022-09-15T07:26:12.996Z,15.60
2022-09-15T07:28:41.965Z,15.70
2022-09-15T07:31:10.813Z,15.80
2022-09-15T07:33:37.638Z,15.90
2022-09-15T07:36:08.983Z,16.10
2022-09-15T07:38:40.047Z,16.30
2022-09-15T07:41:13.159Z,16.60
2022-09-15T07:43:44.272Z,16.80
2022-09-15T07:46:12.138Z,16.80
2022-09-15T07:48:38.924Z,16.80
2022-09-15T07:51:05.757Z,16.90
2022-09-15T07:53:32.912Z,16.60
2022-09-15T07:55:59.656Z,16.80
2022-09-15T07:58:26.931Z,16.90
2022-09-15T08:00:53.830Z,17.10
2022-09-15T08:03:20.619Z,17.00
2022-09-15T08:05:47.449Z,16.90
2022-09-15T08:08:14.185Z,16.90
2022-09-15T08:10:41.328Z,16.80
2022-09-15T08:13:08.825Z,16.80
2022-09-15T08:15:38.722Z,16.70
2022-09-15T08:18:06.404Z,16.60
2022-09-15T08:20:33.674Z,16.80
2022-09-15T08:23:00.641Z,16.80
2022-09-15T08:25:27.509Z,16.70
2022-09-15T08:27:56.292Z,16.90
2022-09-15T08:30:23.670Z,17.00
2022-09-15T08:32:50.836Z,17.10
2022-09-15T08:35:18.494Z,17.10
2022-09-15T08:37:46.071Z,17.20
2022-09-15T08:40:22.110Z,17.40
2022-09-15T08:42:53.179Z,17.30
2022-09-15T08:45:30.964Z,17.50
2022-09-15T08:48:01.747Z,17.50
2022-09-15T08:50:41.666Z,17.40
2022-09-15T08:53:31.255Z,16.90
2022-09-15T08:56:09.338Z,17.10
2022-09-15T08:58:37.945Z,17.20
2022-09-15T09:01:10.372Z,17.30
2022-09-15T09:04:17.959Z,17.50
2022-09-15T09:07:36.339Z,17.60
2022-09-15T09:10:15.395Z,17.60
2022-09-15T09:13:07.453Z,17.80
2022-09-15T09:16:25.274Z,18.00
2022-09-15T09:19:14.936Z,17.90
2022-09-15T09:21:53.577Z,17.90
2022-09-15T09:24:34.771Z,17.80
2022-09-15T09:27:01.565Z,17.90
2022-09-15T09:29:36.326Z,18.20
2022-09-15T09:32:03.487Z,18.20
2022-09-15T09:34:45.707Z,18.10
2022-09-15T09:37:15.484Z,17.60
2022-09-15T09:39:42.620Z,17.80
2022-09-15T09:42:18.433Z,17.90
2022-09-15T09:44:46.738Z,17.90
2022-09-15T09:47:13.648Z,18.00
2022-09-15T09:49:46.755Z,18.10
2022-09-15T09:52:14.094Z,18.40
2022-09-15T09:54:42.218Z,18.20
2022-09-15T09:57:41.489Z,18.10
2022-09-15T10:00:31.871Z,18.30
2022-09-15T10:03:08.918Z,18.40
2022-09-15T10:05:35.711Z,18.20
2022-09-15T10:08:03.485Z,18.00
2022-09-15T10:10:32.250Z,18.10
2022-09-15T10:13:02.703Z,17.90
2022-09-15T10:15:34.390Z,17.70
2022-09-15T10:18:01.803Z,17.30
2022-09-15T10:20:50.000Z,17.40
2022-09-15T10:23:16.693Z,17.30
2022-09-15T10:25:58.557Z,17.40
2022-09-15T10:28:27.781Z,18.00
2022-09-15T10:31:16.101Z,18.30
2022-09-15T10:33:50.647Z,18.90
2022-09-15T10:36:31.636Z,19.00
2022-09-15T10:39:17.827Z,19.20
2022-09-15T10:41:59.032Z,18.40
2022-09-15T10:44:37.533Z,18.40
2022-09-15T10:47:19.558Z,18.40
2022-09-15T10:50:05.869Z,18.50
2022-09-15T10:53:12.840Z,18.30
2022-09-15T10:56:07.911Z,18.50
2022-09-15T10:59:04.842Z,19.10
2022-09-15T11:01:41.716Z,19.70
2022-09-15T11:04:41.120Z,19.40
2022-09-15T11:07:19.284Z,18.90
2022-09-15T11:09:56.007Z,19.30
2022-09-15T11:12:31.622Z,19.60
2022-09-15T11:14:58.307Z,19.60
2022-09-15T11:17:28.250Z,19.50
2022-09-15T11:20:09.326Z,19.50
2022-09-15T11:22:49.267Z,19.80
2022-09-15T11:25:23.625Z,19.30
2022-09-15T11:27:57.844Z,19.20
2022-09-15T11:30:29.686Z,19.30
2022-09-15T11:33:27.110Z,19.30
2022-09-15T11:36:14.403Z,19.70
2022-09-15T11:38:50.142Z,19.90
2022-09-15T11:41:36.166Z,20.20
2022-09-15T11:44:16.011Z,20.60
2022-09-15T11:47:04.769Z,21.00
2022-09-15T11:49:56.234Z,21.00
2022-09-15T11:52:43.012Z,21.30
2022-09-15T11:55:24.996Z,21.50
2022-09-15T11:58:23.740Z,20.80
2022-09-15T12:01:10.733Z,20.20
2022-09-15T12:04:02.033Z,19.70
2022-09-15T12:07:16.861Z,19.50
2022-09-15T12:09:43.719Z,19.90
2022-09-15T12:12:16.842Z,20.00
2022-09-15T12:14:46.581Z,20.20
2022-09-15T12:17:40.260Z,20.00
2022-09-15T12:20:45.877Z,20.30
2022-09-15T12:23:39.427Z,19.80
2022-09-15T12:26:20.116Z,19.80
2022-09-15T12:28:46.779Z,20.00
2022-09-15T12:31:22.636Z,20.20
2022-09-15T12:34:26.689Z,20.20
2022-09-15T12:36:55.405Z,20.00
2022-09-15T12:39:26.142Z,20.00
2022-09-15T12:41:56.039Z,20.00
2022-09-15T12:44:42.091Z,19.90
2022-09-15T12:47:28.489Z,20.10
2022-09-15T12:50:15.989Z,20.60
2022-09-15T12:52:49.881Z,20.60
2022-09-15T12:55:21.235Z,20.40
2022-09-15T12:58:15.794Z,20.30
2022-09-15T13:01:00.691Z,20.40
2022-09-15T13:06:10.440Z,20.60
2022-09-15T13:08:37.113Z,20.70
2022-09-15T13:11:08.964Z,20.70
2022-09-15T13:13:43.902Z,20.50
2022-09-15T13:16:19.474Z,20.40
2022-09-15T13:18:47.438Z,20.40
2022-09-15T13:21:17.431Z,20.50
2022-09-15T13:23:50.195Z,20.60
2022-09-15T13:26:23.910Z,20.80
2022-09-15T13:28:55.610Z,21.00
2022-09-15T13:31:53.506Z,20.90
2022-09-15T13:40:48.245Z,19.00
2022-09-15T13:43:59.269Z,18.90
2022-09-15T13:46:58.124Z,19.10
2022-09-15T13:49:24.958Z,19.20
2022-09-15T13:52:10.101Z,19.40
2022-09-15T13:54:36.897Z,19.60
2022-09-15T13:57:04.647Z,20.10
2022-09-15T13:59:33.208Z,20.60
2022-09-15T14:02:00.858Z,20.60
2022-09-15T14:04:32.040Z,20.60
2022-09-15T14:07:01.331Z,20.40
2022-09-15T14:09:31.132Z,20.20
2022-09-15T14:12:04.657Z,20.00
2022-09-15T14:14:39.377Z,20.00
2022-09-15T14:17:17.619Z,20.00
2022-09-15T14:19:44.346Z,20.10
2022-09-15T14:22:31.367Z,20.10
2022-09-15T14:24:59.760Z,20.30
2022-09-15T14:27:29.239Z,20.30
2022-09-15T14:30:00.410Z,20.40
2022-09-15T14:32:29.095Z,20.40
2022-09-15T14:35:03.478Z,20.30
2022-09-15T14:37:34.703Z,20.10
2022-09-15T14:40:16.514Z,20.30
2022-09-15T14:42:43.624Z,20.20
2022-09-15T14:48:01.917Z,20.10
2022-09-15T14:50:33.119Z,20.20
2022-09-15T14:53:07.563Z,20.00
2022-09-15T14:55:57.514Z,20.10
2022-09-15T14:58:45.526Z,20.20
2022-09-15T15:01:33.213Z,20.20
2022-09-15T15:04:03.165Z,20.40
2022-09-15T15:06:41.563Z,20.50
2022-09-15T15:09:21.357Z,20.20
2022-09-15T15:11:52.941Z,20.20
2022-09-15T15:14:20.089Z,20.10
2022-09-15T15:16:52.781Z,20.00
2022-09-15T15:19:40.597Z,20.00
2022-09-15T15:22:15.031Z,20.20
2022-09-15T15:24:44.954Z,20.40
2022-09-15T15:27:39.544Z,20.40
2022-09-15T15:30:32.300Z,20.40
2022-09-15T15:33:01.635Z,20.30
2022-09-15T15:35:30.052Z,20.20
2022-09-15T15:38:14.178Z,20.20
2022-09-15T15:40:42.012Z,20.00
2022-09-15T15:43:14.935Z,19.90
2022-09-15T15:45:57.735Z,20.00
2022-09-15T15:48:26.526Z,19.60
2022-09-15T15:50:53.527Z,19.60
2022-09-15T15:53:20.431Z,19.60
2022-09-15T15:55:47.178Z,19.50
2022-09-15T15:58:15.825Z,19.40
2022-09-15T16:00:54.556Z,19.30
2022-09-15T16:03:22.066Z,19.30
2022-09-15T16:05:51.538Z,19.10
2022-09-15T16:08:38.041Z,19.00
2022-09-15T16:11:07.748Z,18.90
2022-09-15T16:13:34.530Z,18.90
2022-09-15T16:16:01.636Z,18.90
2022-09-15T16:18:29.420Z,18.90
2022-09-15T16:20:56.196Z,18.90
2022-09-15T16:23:23.442Z,18.80
2022-09-15T16:26:02.434Z,18.90
2022-09-15T16:28:29.887Z,18.90
2022-09-15T16:30:57.212Z,18.90
2022-09-15T16:33:25.009Z,18.90
2022-09-15T16:36:09.466Z,18.90
2022-09-15T16:38:36.798Z,19.00
2022-09-15T16:41:27.983Z,18.90
2022-09-15T16:43:55.980Z,18.80
2022-09-15T16:46:22.877Z,18.90
2022-09-15T16:48:49.684Z,18.80
2022-09-15T16:51:34.248Z,18.90
2022-09-15T16:54:00.986Z,18.90
2022-09-15T16:56:28.389Z,18.80
2022-09-15T16:59:00.178Z,18.90
2022-09-15T17:01:27.529Z,18.80
2022-09-15T17:03:54.325Z,18.80
2022-09-15T17:06:21.960Z,18.90
2022-09-15T17:08:48.893Z,18.70
2022-09-15T17:11:18.120Z,18.40
2022-09-15T17:13:45.800Z,18.30
2022-09-15T17:16:14.845Z,18.20
2022-09-15T17:18:41.686Z,18.10
2022-09-15T17:21:11.247Z,18.00
2022-09-15T17:23:43.930Z,18.00
2022-09-15T17:26:13.314Z,18.00
2022-09-15T17:28:41.055Z,17.90
2022-09-15T17:31:22.523Z,17.50
2022-09-15T17:33:50.030Z,17.40
2022-09-15T17:36:17.487Z,17.30
2022-09-15T17:38:48.833Z,17.30
2022-09-15T17:41:17.697Z,17.20
2022-09-15T17:43:44.596Z,17.20
2022-09-15T17:46:12.109Z,17.10
2022-09-15T17:48:39.243Z,17.00
2022-09-15T17:51:07.078Z,16.80
2022-09-15T17:53:34.168Z,16.80
2022-09-15T17:56:01.057Z,16.70
2022-09-15T17:58:29.895Z,16.70
2022-09-15T18:00:57.329Z,16.60
2022-09-15T18:03:28.587Z,16.60
2022-09-15T18:05:58.221Z,16.60
2022-09-15T18:08:25.941Z,16.60
2022-09-15T18:10:53.357Z,16.60
2022-09-15T18:13:23.610Z,16.50
2022-09-15T18:15:50.528Z,16.50
2022-09-15T18:18:19.803Z,16.50
2022-09-15T18:20:47.605Z,16.30
2022-09-15T18:23:17.021Z,16.40
2022-09-15T18:25:44.599Z,16.40
2022-09-15T18:28:11.467Z,16.30
2022-09-15T18:30:40.861Z,16.20
2022-09-15T18:33:20.357Z,16.20
2022-09-15T18:35:48.558Z,16.10
2022-09-15T18:38:15.367Z,16.10
2022-09-15T18:40:50.699Z,16.00
2022-09-15T18:43:17.912Z,16.00
2022-09-15T18:45:44.944Z,15.80
2022-09-15T18:48:13.116Z,15.90
2022-09-15T18:50:41.303Z,15.90
2022-09-15T18:53:08.359Z,15.90
2022-09-15T18:55:35.127Z,15.80
2022-09-15T18:58:02.505Z,15.70
2022-09-15T19:00:30.075Z,15.70
2022-09-15T19:03:01.190Z,15.70
2022-09-15T19:05:29.813Z,15.70
2022-09-15T19:07:57.022Z,15.70
2022-09-15T19:10:24.881Z,15.80
2022-09-15T19:12:51.732Z,15.80
2022-09-15T19:15:23.595Z,15.70
2022-09-15T19:17:50.924Z,15.80
2022-09-15T19:20:17.783Z,15.80
2022-09-15T19:22:44.522Z,15.80
2022-09-15T19:25:11.404Z,15.90
2022-09-15T19:27:39.674Z,15.80
2022-09-15T19:30:09.897Z,15.80
2022-09-15T19:32:38.184Z,15.80
2022-09-15T19:35:05.423Z,15.90
2022-09-15T19:37:35.296Z,15.80
2022-09-15T19:40:03.504Z,15.80
2022-09-15T19:42:30.401Z,15.80
2022-09-15T19:44:57.073Z,15.60
2022-09-15T19:47:23.956Z,15.70
2022-09-15T19:49:52.306Z,15.60
2022-09-15T19:52:18.945Z,15.70
2022-09-15T19:54:45.574Z,15.60
2022-09-15T19:57:12.222Z,15.50
2022-09-15T19:59:39.173Z,15.70
2022-09-15T20:02:06.480Z,15.70
2022-09-15T20:04:33.288Z,15.80
2022-09-15T20:06:59.909Z,15.80
2022-09-15T20:09:26.665Z,15.80
2022-09-15T20:11:53.284Z,15.70
2022-09-15T20:14:19.932Z,15.70
2022-09-15T20:16:46.788Z,15.70
2022-09-15T20:19:13.628Z,15.70
2022-09-15T20:21:56.324Z,15.80
2022-09-15T20:24:24.249Z,15.70
2022-09-15T20:26:51.536Z,15.70
2022-09-15T20:29:19.336Z,15.70
2022-09-15T20:31:46.805Z,15.70
2022-09-15T20:34:13.541Z,15.70
2022-09-15T20:36:40.602Z,15.70
2022-09-15T20:39:12.759Z,15.70
2022-09-15T20:41:40.593Z,15.70
2022-09-15T20:44:10.209Z,15.70
2022-09-15T20:46:36.910Z,15.70
2022-09-15T20:49:04.689Z,15.80
2022-09-15T20:51:33.591Z,15.70
2022-09-15T20:54:01.957Z,15.80
2022-09-15T20:56:30.063Z,15.90
2022-09-15T20:58:58.955Z,15.90
2022-09-15T21:01:28.059Z,15.90
2022-09-15T21:03:55.598Z,15.90
2022-09-15T21:06:24.953Z,15.90
2022-09-15T21:08:53.220Z,16.00
2022-09-15T21:11:21.025Z,15.90
2022-09-15T21:13:49.300Z,15.80
2022-09-15T21:16:18.499Z,15.70
2022-09-15T21:18:45.627Z,15.70
2022-09-15T21:21:23.590Z,15.80
2022-09-15T21:23:53.245Z,15.80
2022-09-15T21:26:25.592Z,15.70
2022-09-15T21:28:53.567Z,15.90
2022-09-15T21:31:22.677Z,15.90
2022-09-15T21:33:49.983Z,15.80
2022-09-15T21:36:22.035Z,15.70
2022-09-15T21:38:50.697Z,15.70
2022-09-15T21:41:20.757Z,15.70
2022-09-15T21:43:47.872Z,15.70
2022-09-15T21:46:18.146Z,15.60
2022-09-15T21:48:47.770Z,15.60
2022-09-15T21:51:17.990Z,15.60
2022-09-15T21:53:50.864Z,15.60
2022-09-15T21:56:17.679Z,15.70
2022-09-15T21:58:44.719Z,15.50
2022-09-15T22:01:18.868Z,15.40
2022-09-15T22:03:51.474Z,15.30
2022-09-15T22:06:19.656Z,15.20
2022-09-15T22:08:46.731Z,15.20
2022-09-15T22:11:13.522Z,15.20
2022-09-15T22:13:42.967Z,15.20
2022-09-15T22:16:16.340Z,15.20
2022-09-15T22:18:44.229Z,15.20
2022-09-15T22:21:22.747Z,15.20
2022-09-15T22:23:51.081Z,15.30
2022-09-15T22:26:20.378Z,15.20
2022-09-15T22:28:47.365Z,15.30
2022-09-15T22:31:16.547Z,15.20
2022-09-15T22:33:43.466Z,15.20
2022-09-15T22:36:11.648Z,15.00
2022-09-15T22:38:38.592Z,15.10
2022-09-15T22:41:11.910Z,15.20
2022-09-15T22:43:40.027Z,15.20
2022-09-15T22:46:07.350Z,15.10
2022-09-15T22:48:34.154Z,15.10
2022-09-15T22:51:01.202Z,15.10
2022-09-15T22:53:28.296Z,15.00
2022-09-15T22:56:06.710Z,15.00
2022-09-15T22:58:34.392Z,15.00
2022-09-15T23:01:13.445Z,15.00
2022-09-15T23:03:40.354Z,14.90
2022-09-15T23:06:08.441Z,14.90
2022-09-15T23:08:36.224Z,14.80
2022-09-15T23:11:08.800Z,14.50
2022-09-15T23:13:35.950Z,14.40
2022-09-15T23:16:03.021Z,14.40
2022-09-15T23:18:30.398Z,14.50
2022-09-15T23:21:01.852Z,14.50
2022-09-15T23:23:29.411Z,14.60
2022-09-15T23:25:56.370Z,14.60
2022-09-15T23:28:23.303Z,14.50
2022-09-15T23:30:54.364Z,14.40
2022-09-15T23:33:22.285Z,14.50
2022-09-15T23:35:49.257Z,14.50
2022-09-15T23:38:17.526Z,14.50
2022-09-15T23:40:44.794Z,14.40
2022-09-15T23:43:11.840Z,14.30
2022-09-15T23:45:38.809Z,14.40
2022-09-15T23:48:07.002Z,14.30
2022-09-15T23:50:34.643Z,14.30
2022-09-15T23:53:01.385Z,14.40
2022-09-15T23:55:28.103Z,14.40
2022-09-15T23:57:54.871Z,14.40
